createdAt,value
2022-09-10T02:55:17.432Z,58.42
2022-09-10T03:00:39.304Z,57.67
2022-09-10T03:06:00.053Z,57.59
2022-09-10T03:11:23.967Z,57.80
2022-09-10T03:16:47.412Z,58.10
2022-09-10T03:22:08.395Z,58.16
2022-09-10T03:27:30.956Z,58.16
2022-09-10T03:32:53.139Z,58.26
2022-09-10T03:38:14.687Z,57.87
2022-09-10T03:43:35.424Z,58.77
2022-09-10T03:49:02.482Z,58.30
2022-09-10T03:54:24.261Z,58.05
2022-09-10T03:59:46.047Z,58.09
2022-09-10T04:05:08.163Z,58.34
2022-09-10T04:10:31.323Z,58.29
2022-09-10T04:15:53.283Z,58.50
2022-09-10T04:21:15.761Z,58.48
2022-09-10T04:26:36.979Z,58.71
2022-09-10T04:31:59.433Z,59.00
2022-09-10T04:37:24.564Z,58.78
2022-09-10T04:42:48.551Z,58.56
2022-09-10T04:48:10.532Z,58.50
2022-09-10T04:53:34.375Z,58.82
2022-09-10T04:58:56.321Z,59.00
2022-09-10T05:04:17.420Z,58.93
2022-09-10T05:09:38.669Z,58.85
2022-09-10T05:15:00.146Z,58.91
2022-09-10T05:20:27.792Z,59.04
2022-09-10T05:25:50.382Z,59.21
2022-09-10T05:31:12.834Z,58.79
2022-09-10T05:36:36.269Z,58.58
2022-09-10T05:41:57.872Z,58.58
2022-09-10T05:47:19.402Z,58.64
2022-09-10T05:52:40.403Z,58.47
2022-09-10T05:58:03.546Z,58.46
2022-09-10T06:03:24.749Z,58.61
2022-09-10T06:08:52.271Z,58.57
2022-09-10T06:14:27.164Z,58.17
2022-09-10T06:19:47.969Z,58.47
2022-09-10T06:25:12.789Z,57.34
2022-09-10T06:30:35.277Z,57.86
2022-09-10T06:36:01.633Z,57.08
2022-09-10T06:41:23.321Z,57.25
2022-09-10T06:47:42.724Z,58.00
2022-09-10T06:52:45.187Z,57.06
2022-09-10T06:58:08.159Z,56.41
2022-09-10T07:03:31.367Z,56.34
2022-09-10T07:08:57.030Z,56.06
2022-09-10T07:14:18.656Z,55.45
2022-09-10T07:19:40.714Z,55.05
2022-09-10T07:25:13.331Z,54.68
2022-09-10T07:30:50.292Z,54.35
2022-09-10T07:36:12.591Z,53.79
2022-09-10T07:41:34.974Z,52.90
2022-09-10T07:46:57.485Z,52.06
2022-09-10T07:52:19.225Z,51.22
2022-09-10T07:57:45.521Z,49.92
2022-09-10T08:03:06.597Z,49.01
2022-09-10T08:08:33.954Z,48.15
2022-09-10T08:13:56.855Z,46.19
2022-09-10T08:19:21.623Z,45.39
2022-09-10T08:24:43.769Z,44.46
2022-09-10T08:30:05.787Z,43.34
2022-09-10T08:35:27.594Z,42.70
2022-09-10T08:40:49.043Z,41.99
2022-09-10T08:46:20.266Z,31.32
2022-09-10T08:51:54.162Z,32.33
2022-09-10T08:57:28.221Z,27.56
2022-09-10T09:02:52.332Z,20.35
2022-09-10T09:08:21.819Z,17.48
2022-09-10T09:13:56.430Z,23.87
2022-09-10T09:19:34.075Z,28.46
2022-09-10T09:25:00.731Z,30.39
2022-09-10T09:30:33.558Z,26.65
2022-09-10T09:36:00.725Z,22.64
2022-09-10T09:41:51.412Z,20.36
2022-09-10T09:47:13.117Z,18.39
2022-09-10T09:52:38.535Z,17.04
2022-09-10T09:58:24.419Z,20.21
2022-09-10T10:03:51.700Z,20.09
2022-09-10T10:09:21.189Z,15.00
2022-09-10T10:14:43.452Z,14.80
2022-09-10T10:20:13.527Z,14.98
2022-09-10T10:25:41.322Z,21.87
2022-09-10T10:31:04.741Z,19.49
2022-09-10T10:36:31.867Z,22.47
2022-09-10T10:42:05.206Z,28.77
2022-09-10T10:47:29.241Z,23.89
2022-09-10T10:52:58.768Z,19.50
2022-09-10T10:58:29.629Z,15.92
2022-09-10T11:03:53.523Z,22.84
2022-09-10T11:09:39.117Z,28.90
2022-09-10T11:15:28.904Z,28.94
2022-09-10T11:21:15.292Z,30.15
2022-09-10T11:26:47.462Z,32.75
2022-09-10T11:32:16.778Z,28.27
2022-09-10T11:37:56.557Z,27.78
2022-09-10T11:43:36.654Z,29.26
2022-09-10T11:49:09.204Z,27.17
2022-09-10T11:54:34.470Z,26.17
2022-09-10T12:00:17.026Z,24.24
2022-09-10T12:05:50.278Z,24.96
2022-09-10T12:11:35.371Z,28.25
2022-09-10T12:17:18.622Z,29.27
2022-09-10T12:22:41.823Z,32.24
2022-09-10T12:28:24.896Z,34.51
2022-09-10T12:33:45.442Z,34.75
2022-09-10T12:39:25.151Z,35.24
2022-09-10T12:44:46.643Z,36.05
2022-09-10T12:50:20.490Z,36.38
2022-09-10T12:55:57.766Z,35.42
2022-09-10T13:01:30.104Z,34.55
2022-09-10T13:06:54.591Z,34.88
2022-09-10T13:12:24.523Z,35.29
2022-09-10T13:17:48.852Z,35.29
2022-09-10T13:23:09.657Z,35.38
2022-09-10T13:28:30.665Z,34.89
2022-09-10T13:33:52.125Z,34.65
2022-09-10T13:39:34.580Z,35.11
2022-09-10T13:44:55.532Z,36.32
2022-09-10T13:50:18.968Z,36.23
2022-09-10T13:55:48.976Z,36.44
2022-09-10T14:01:09.844Z,36.37
2022-09-10T14:06:30.603Z,36.43
2022-09-10T14:11:51.762Z,36.64
2022-09-10T14:17:27.395Z,36.37
2022-09-10T14:22:53.416Z,36.44
2022-09-10T14:28:26.959Z,36.15
2022-09-10T14:33:48.131Z,36.31
2022-09-10T14:39:15.011Z,36.62
2022-09-10T14:44:41.257Z,36.57
2022-09-10T14:50:25.744Z,36.71
2022-09-10T14:55:46.667Z,37.75
2022-09-10T15:01:09.292Z,37.67
2022-09-10T15:06:31.630Z,38.38
2022-09-10T15:12:36.210Z,38.89
2022-09-10T15:18:28.058Z,39.47
2022-09-10T15:30:37.194Z,40.03
2022-09-10T15:36:27.653Z,40.16
2022-09-10T15:42:21.273Z,40.75
2022-09-10T16:06:27.366Z,44.35
2022-09-10T16:11:49.892Z,45.44
2022-09-10T16:17:11.370Z,45.60
2022-09-10T16:22:32.600Z,45.98
2022-09-10T16:27:53.790Z,46.59
2022-09-10T16:33:14.480Z,46.45
2022-09-10T16:38:35.523Z,46.73
2022-09-10T16:44:00.499Z,47.79
2022-09-10T16:49:21.402Z,47.17
2022-09-10T16:54:42.116Z,47.58
2022-09-10T17:00:06.845Z,47.65
2022-09-10T17:05:28.886Z,48.08
2022-09-10T17:10:50.120Z,47.95
2022-09-10T17:16:26.305Z,49.63
2022-09-10T17:21:51.174Z,48.65
2022-09-10T17:27:12.276Z,48.80
2022-09-10T17:32:33.308Z,48.95
2022-09-10T17:37:54.002Z,49.12
2022-09-10T17:43:15.567Z,49.20
2022-09-10T17:48:38.000Z,49.27
2022-09-10T17:53:59.447Z,49.38
2022-09-10T17:59:21.870Z,49.25
2022-09-10T18:04:42.894Z,49.60
2022-09-10T18:10:04.861Z,49.53
2022-09-10T18:15:32.738Z,49.79
2022-09-10T18:20:53.752Z,49.97
2022-09-10T18:26:16.357Z,50.36
2022-09-10T18:31:40.079Z,50.62
2022-09-10T18:37:02.444Z,50.69
2022-09-10T18:42:23.562Z,50.59
2022-09-10T18:47:45.464Z,50.65
2022-09-10T18:53:06.367Z,50.69
2022-09-10T18:58:27.652Z,50.69
2022-09-10T19:03:49.060Z,50.84
2022-09-10T19:09:13.522Z,51.42
2022-09-10T19:14:35.809Z,51.06
2022-09-10T19:19:57.919Z,51.43
2022-09-10T19:25:18.801Z,51.62
2022-09-10T19:30:40.120Z,51.60
2022-09-10T19:36:05.378Z,52.05
2022-09-10T19:41:27.060Z,52.15
2022-09-10T19:46:47.891Z,51.74
2022-09-10T19:52:10.968Z,52.03
2022-09-10T19:57:33.608Z,52.38
2022-09-10T20:02:54.386Z,52.21
2022-09-10T20:08:15.546Z,52.49
2022-09-10T20:13:36.919Z,52.41
2022-09-10T20:18:58.055Z,52.39
2022-09-10T20:24:19.272Z,52.64
2022-09-10T20:29:40.099Z,52.76
2022-09-10T20:35:02.764Z,52.73
2022-09-10T20:40:23.848Z,52.85
2022-09-10T20:45:44.693Z,52.88
2022-09-10T20:51:05.435Z,53.24
2022-09-10T20:56:26.553Z,53.08
2022-09-10T21:01:47.578Z,53.51
2022-09-10T21:07:09.058Z,53.69
2022-09-10T21:12:30.267Z,53.53
2022-09-10T21:17:51.358Z,53.87
2022-09-10T21:23:11.870Z,53.07
2022-09-10T21:28:32.584Z,53.60
2022-09-10T21:33:54.759Z,54.13
2022-09-10T21:39:17.440Z,53.40
2022-09-10T21:44:38.546Z,53.40
2022-09-10T21:49:59.502Z,54.05
2022-09-10T21:55:20.074Z,54.54
